createdAt,value
2022-08-14T00:02:15.088Z,28.60
2022-08-14T00:04:45.456Z,30.90
2022-08-14T00:07:14.558Z,29.92
2022-08-14T00:10:02.165Z,28.02
2022-08-14T00:12:40.037Z,29.65
2022-08-14T00:15:22.795Z,29.50
2022-08-14T00:17:53.596Z,27.90
2022-08-14T00:20:35.776Z,26.38
2022-08-14T00:23:14.528Z,26.80
2022-08-14T00:25:54.016Z,26.50
2022-08-14T00:28:35.570Z,27.67
2022-08-14T00:31:05.256Z,29.98
2022-08-14T00:33:50.801Z,25.30
2022-08-14T00:36:36.289Z,25.70
2022-08-14T00:39:14.506Z,25.30
2022-08-14T00:41:43.603Z,31.13
2022-08-14T00:44:11.173Z,29.20
2022-08-14T00:46:38.912Z,27.63
2022-08-14T00:49:06.417Z,25.65
2022-08-14T00:51:38.338Z,31.20
2022-08-14T00:54:11.113Z,31.00
2022-08-14T00:56:55.096Z,21.85
2022-08-14T00:59:25.704Z,26.70
2022-08-14T01:01:58.165Z,27.65
2022-08-14T01:04:51.736Z,27.52
2022-08-14T01:07:19.931Z,30.52
2022-08-14T01:10:07.611Z,29.33
2022-08-14T01:12:40.541Z,28.02
2022-08-14T01:15:09.695Z,26.17
2022-08-14T01:17:55.496Z,27.08
2022-08-14T01:20:41.472Z,32.45
2022-08-14T01:23:19.101Z,29.95
2022-08-14T01:25:51.549Z,26.17
2022-08-14T01:28:46.671Z,28.42
2022-08-14T01:31:16.869Z,23.10
2022-08-14T01:34:00.091Z,33.58
2022-08-14T01:36:39.849Z,26.80
2022-08-14T01:39:13.573Z,30.25
2022-08-14T01:41:43.950Z,30.17
2022-08-14T01:44:32.479Z,27.52
2022-08-14T01:47:11.606Z,29.85
2022-08-14T01:49:46.074Z,27.55
2022-08-14T01:52:59.427Z,28.50
2022-08-14T01:55:15.525Z,28.30
2022-08-14T01:58:00.459Z,27.85
2022-08-14T02:00:35.953Z,27.50
2022-08-14T02:03:06.195Z,28.52
2022-08-14T02:05:38.136Z,31.02
2022-08-14T02:08:09.632Z,32.60
2022-08-14T02:10:47.129Z,32.78
2022-08-14T02:13:19.752Z,28.05
2022-08-14T02:15:48.580Z,32.63
2022-08-14T02:18:18.392Z,34.00
2022-08-14T02:20:48.316Z,36.70
2022-08-14T02:23:15.639Z,32.50
2022-08-14T02:25:54.386Z,27.80
2022-08-14T02:28:57.565Z,29.13
2022-08-14T02:31:14.931Z,30.67
2022-08-14T02:33:42.733Z,29.73
2022-08-14T02:37:05.364Z,29.92
2022-08-14T02:38:58.732Z,39.03
2022-08-14T02:41:28.657Z,31.83
2022-08-14T02:44:01.029Z,34.03
2022-08-14T02:46:32.325Z,38.13
2022-08-14T02:49:04.411Z,39.50
2022-08-14T02:51:34.728Z,35.67
2022-08-14T02:54:07.334Z,41.13
2022-08-14T02:57:16.254Z,39.30
2022-08-14T02:59:33.707Z,38.80
2022-08-14T03:02:02.963Z,47.47
2022-08-14T03:04:31.157Z,43.60
2022-08-14T03:07:07.449Z,40.72
2022-08-14T03:10:25.348Z,42.33
2022-08-14T03:12:32.485Z,36.60
2022-08-14T03:15:14.311Z,36.63
2022-08-14T03:17:56.221Z,41.08
2022-08-14T03:20:30.604Z,42.67
2022-08-14T03:23:03.117Z,48.55
2022-08-14T03:25:33.553Z,38.63
2022-08-14T03:28:07.276Z,43.75
2022-08-14T03:33:11.200Z,34.28
2022-08-14T03:36:05.378Z,41.70
2022-08-14T03:39:12.797Z,35.60
2022-08-14T03:41:27.367Z,35.40
2022-08-14T03:45:19.935Z,37.58
2022-08-14T03:46:56.073Z,32.75
2022-08-14T03:49:29.429Z,40.47
2022-08-14T03:52:01.331Z,42.38
2022-08-14T03:54:30.098Z,45.95
2022-08-14T03:57:02.936Z,41.63
2022-08-14T03:59:32.673Z,45.38
2022-08-14T04:02:01.718Z,43.50
2022-08-14T04:04:33.649Z,37.20
2022-08-14T04:07:01.695Z,42.97
2022-08-14T04:09:29.465Z,45.70
2022-08-14T04:11:58.277Z,43.95
2022-08-14T04:14:28.500Z,38.42
2022-08-14T04:16:55.788Z,38.78
2022-08-14T04:19:24.687Z,40.85
2022-08-14T04:24:40.552Z,44.58
2022-08-14T04:27:10.184Z,46.05
2022-08-14T04:29:44.954Z,41.63
2022-08-14T04:33:10.368Z,39.85
2022-08-14T04:35:01.180Z,36.47
2022-08-14T04:37:53.976Z,31.63
2022-08-14T04:40:40.766Z,33.70
2022-08-14T04:43:38.614Z,30.77
2022-08-14T04:46:08.293Z,31.70
2022-08-14T04:48:42.814Z,30.73
2022-08-14T04:51:26.912Z,34.05
2022-08-14T04:53:55.994Z,31.92
2022-08-14T04:56:33.286Z,28.50
2022-08-14T04:59:09.666Z,31.45
2022-08-14T05:01:41.785Z,28.13
2022-08-14T05:04:19.997Z,27.23
2022-08-14T05:06:49.283Z,25.85
2022-08-14T05:09:17.168Z,25.42
2022-08-14T05:11:45.023Z,30.58
2022-08-14T05:14:33.108Z,32.58
2022-08-14T05:17:02.312Z,26.15
2022-08-14T05:19:32.726Z,27.73
2022-08-14T05:22:17.081Z,27.10
2022-08-14T05:24:52.077Z,22.65
2022-08-14T05:27:22.369Z,23.20
2022-08-14T05:29:56.851Z,19.70
2022-08-14T05:32:30.586Z,20.80
2022-08-14T05:34:59.613Z,25.23
2022-08-14T05:37:29.658Z,21.70
2022-08-14T05:39:59.223Z,20.10
2022-08-14T05:42:29.176Z,21.13
2022-08-14T05:44:59.522Z,19.50
2022-08-14T05:47:28.622Z,21.55
2022-08-14T05:49:58.437Z,15.57
2022-08-14T05:52:26.358Z,18.00
2022-08-14T05:55:08.764Z,17.45
2022-08-14T05:57:49.225Z,18.40
2022-08-14T06:00:24.943Z,15.45
2022-08-14T06:02:57.861Z,16.75
2022-08-14T06:05:29.147Z,18.42
2022-08-14T06:07:58.662Z,19.30
2022-08-14T06:10:28.623Z,18.75
2022-08-14T06:13:03.434Z,21.90
2022-08-14T06:15:31.014Z,20.58
2022-08-14T06:18:00.246Z,20.15
2022-08-14T06:20:29.995Z,20.02
2022-08-14T06:22:58.065Z,15.38
2022-08-14T06:25:27.288Z,16.50
2022-08-14T06:27:55.802Z,15.02
2022-08-14T06:30:30.359Z,18.00
2022-08-14T06:33:13.359Z,12.95
2022-08-14T06:35:43.681Z,13.70
2022-08-14T06:38:31.990Z,10.45
2022-08-14T06:40:59.370Z,12.50
2022-08-14T06:43:31.754Z,11.57
2022-08-14T06:46:01.198Z,16.45
2022-08-14T06:48:35.526Z,8.88
2022-08-14T06:53:30.940Z,18.25
2022-08-14T06:56:02.154Z,13.18
2022-08-14T06:58:31.367Z,8.65
2022-08-14T07:01:25.037Z,7.97
2022-08-14T07:04:23.076Z,7.82
2022-08-14T07:06:59.775Z,12.25
2022-08-14T07:09:44.371Z,5.50
2022-08-14T07:12:55.124Z,10.13
2022-08-14T07:15:05.233Z,6.35
2022-08-14T07:17:34.348Z,8.18
2022-08-14T07:20:05.630Z,8.13
2022-08-14T07:22:50.047Z,6.88
2022-08-14T07:25:22.747Z,7.25
2022-08-14T07:28:01.144Z,6.50
2022-08-14T07:30:34.496Z,5.05
2022-08-14T07:33:03.739Z,7.35
2022-08-14T07:35:37.493Z,9.27
2022-08-14T07:38:18.766Z,5.88
2022-08-14T07:40:48.770Z,11.05
2022-08-14T07:43:21.817Z,8.70
2022-08-14T07:45:50.672Z,7.53
2022-08-14T07:48:19.388Z,12.10
2022-08-14T07:51:10.685Z,8.75
2022-08-14T07:53:48.555Z,6.82
2022-08-14T07:56:47.134Z,6.32
2022-08-14T07:59:12.729Z,7.43
2022-08-14T08:01:47.931Z,7.15
2022-08-14T08:04:25.114Z,3.38
2022-08-14T08:06:55.629Z,6.25
2022-08-14T08:09:31.805Z,4.60
2022-08-14T08:12:15.704Z,6.78
2022-08-14T08:14:55.437Z,4.53
2022-08-14T08:17:24.815Z,6.13
2022-08-14T08:19:52.080Z,5.85
2022-08-14T08:22:21.431Z,5.75
2022-08-14T08:24:50.386Z,5.35
2022-08-14T08:27:22.588Z,4.90
2022-08-14T08:30:02.475Z,7.63
2022-08-14T08:32:45.833Z,7.03
2022-08-14T08:35:21.498Z,6.15
2022-08-14T08:38:01.224Z,7.18
2022-08-14T08:40:42.038Z,5.65
2022-08-14T08:43:20.021Z,7.78
2022-08-14T08:46:21.566Z,9.50
2022-08-14T08:51:31.016Z,8.05
2022-08-14T08:54:18.193Z,5.28
2022-08-14T08:56:48.389Z,2.65
2022-08-14T08:59:21.469Z,5.60
2022-08-14T09:01:56.431Z,4.32
2022-08-14T09:04:27.477Z,8.20
2022-08-14T09:07:09.288Z,5.30
2022-08-14T09:12:23.695Z,5.75
2022-08-14T09:14:53.434Z,3.08
2022-08-14T09:17:20.878Z,5.32
2022-08-14T09:22:33.330Z,7.20
2022-08-14T09:25:07.127Z,11.48
2022-08-14T09:27:35.683Z,7.03
2022-08-14T09:30:30.680Z,6.07
2022-08-14T09:33:09.366Z,6.47
2022-08-14T09:35:38.071Z,4.90
2022-08-14T09:38:25.811Z,4.28
2022-08-14T09:41:18.195Z,4.35
2022-08-14T09:44:05.240Z,4.80
2022-08-14T09:46:35.546Z,3.55
2022-08-14T09:49:12.032Z,5.43
2022-08-14T09:51:51.785Z,6.47
2022-08-14T09:54:56.134Z,4.20
2022-08-14T09:57:27.772Z,3.92
2022-08-14T09:59:56.626Z,8.18
2022-08-14T10:02:32.272Z,6.60
2022-08-14T10:05:09.264Z,6.32
2022-08-14T10:07:59.073Z,3.53
2022-08-14T10:10:40.251Z,3.05
2022-08-14T10:13:25.437Z,6.75
2022-08-14T10:16:00.305Z,3.53
2022-08-14T10:18:28.609Z,7.07
2022-08-14T10:21:01.729Z,6.40
2022-08-14T10:23:41.826Z,4.22
2022-08-14T10:26:11.899Z,6.97
2022-08-14T10:29:18.557Z,7.05
2022-08-14T10:32:00.820Z,5.90
2022-08-14T10:34:38.731Z,5.88
2022-08-14T10:37:14.583Z,3.90
2022-08-14T10:40:01.845Z,6.03
2022-08-14T10:42:40.463Z,5.72
2022-08-14T10:45:33.843Z,4.70
2022-08-14T10:48:34.537Z,3.85
2022-08-14T10:51:01.569Z,4.45
2022-08-14T10:53:35.127Z,5.40
2022-08-14T10:56:07.125Z,4.75
2022-08-14T10:58:49.953Z,4.63
2022-08-14T11:01:17.233Z,4.90
2022-08-14T11:03:56.266Z,9.50
2022-08-14T11:06:24.942Z,8.32
2022-08-14T11:08:55.921Z,6.82
2022-08-14T11:11:35.762Z,7.40
2022-08-14T11:14:09.546Z,9.30
2022-08-14T11:16:41.094Z,5.70
2022-08-14T11:19:24.321Z,4.22
2022-08-14T11:21:56.089Z,5.53
2022-08-14T11:24:50.669Z,13.50
2022-08-14T11:27:19.098Z,5.85
2022-08-14T11:29:52.718Z,5.82
2022-08-14T11:32:36.435Z,9.43
2022-08-14T11:35:05.949Z,9.73
2022-08-14T11:37:40.477Z,7.63
2022-08-14T11:40:16.545Z,7.85
2022-08-14T11:43:08.227Z,16.92
2022-08-14T11:45:45.777Z,5.88
2022-08-14T11:49:04.323Z,4.40
2022-08-14T11:51:17.949Z,4.75
2022-08-14T11:53:52.535Z,10.75
2022-08-14T11:56:25.671Z,5.68
2022-08-14T11:59:02.897Z,5.45
2022-08-14T12:01:32.368Z,6.88
2022-08-14T12:04:21.535Z,13.00
2022-08-14T12:07:01.278Z,6.93
2022-08-14T12:09:43.036Z,4.93
2022-08-14T12:12:35.669Z,6.00
2022-08-14T12:15:06.902Z,5.75
2022-08-14T12:17:49.598Z,4.00
2022-08-14T12:20:30.283Z,5.28
2022-08-14T12:23:02.267Z,4.45
2022-08-14T12:25:34.575Z,3.95
2022-08-14T12:28:10.372Z,6.53
2022-08-14T12:33:32.952Z,6.30
2022-08-14T12:36:05.747Z,3.95
2022-08-14T12:38:44.929Z,3.78
2022-08-14T12:41:22.114Z,5.40
2022-08-14T12:44:01.980Z,5.65
2022-08-14T12:46:35.059Z,6.65
2022-08-14T12:49:16.108Z,7.35
2022-08-14T12:51:55.837Z,9.80
2022-08-14T12:54:28.438Z,7.35
2022-08-14T12:57:20.160Z,5.57
2022-08-14T12:59:49.498Z,6.55
2022-08-14T13:02:26.228Z,3.28
2022-08-14T13:04:58.135Z,5.13
2022-08-14T13:07:32.562Z,6.17
2022-08-14T13:10:29.660Z,5.80
2022-08-14T13:13:12.939Z,7.32
2022-08-14T13:15:40.548Z,8.23
2022-08-14T13:18:11.565Z,7.30
2022-08-14T13:20:49.484Z,9.68
2022-08-14T13:23:30.482Z,4.55
2022-08-14T13:26:00.908Z,7.95
2022-08-14T13:28:32.814Z,7.05
2022-08-14T13:31:09.078Z,5.50
2022-08-14T13:33:41.273Z,4.50
2022-08-14T13:36:11.026Z,7.80
2022-08-14T13:38:53.526Z,5.22
2022-08-14T13:41:28.168Z,4.55
2022-08-14T13:44:04.032Z,6.95
2022-08-14T13:46:31.448Z,9.65
2022-08-14T13:49:00.090Z,7.32
2022-08-14T13:51:32.168Z,5.53
2022-08-14T13:54:10.610Z,7.95
2022-08-14T13:56:42.155Z,3.60
2022-08-14T13:59:11.089Z,4.93
2022-08-14T14:01:43.303Z,4.80
2022-08-14T14:04:18.887Z,5.05
2022-08-14T14:06:50.946Z,7.03
2022-08-14T14:09:37.443Z,8.80
2022-08-14T14:12:36.457Z,5.95
2022-08-14T14:15:05.391Z,5.18
2022-08-14T14:17:35.278Z,5.55
2022-08-14T14:20:07.548Z,9.60
2022-08-14T14:23:02.586Z,11.88
2022-08-14T14:25:46.049Z,5.35
2022-08-14T14:28:24.015Z,9.88
2022-08-14T14:30:54.555Z,8.65
2022-08-14T14:33:46.654Z,7.53
2022-08-14T14:36:26.178Z,11.55
2022-08-14T14:39:01.549Z,8.07
2022-08-14T14:41:37.416Z,6.95
2022-08-14T14:44:13.654Z,4.38
2022-08-14T14:46:53.288Z,7.88
2022-08-14T14:49:31.640Z,9.02
2022-08-14T14:52:13.954Z,7.95
2022-08-14T14:54:53.860Z,6.57
2022-08-14T14:57:21.319Z,4.53
2022-08-14T14:59:50.133Z,8.35
2022-08-14T15:02:32.871Z,8.23
2022-08-14T15:07:29.781Z,7.85
2022-08-14T15:09:57.140Z,4.32
2022-08-14T15:12:55.098Z,9.45
2022-08-14T15:15:12.661Z,10.82
2022-08-14T15:17:41.990Z,8.48
2022-08-14T15:20:17.631Z,6.75
2022-08-14T15:22:59.970Z,6.70
2022-08-14T15:25:31.927Z,6.05
2022-08-14T15:28:01.077Z,7.55
2022-08-14T15:30:32.627Z,5.70
2022-08-14T15:33:00.712Z,7.30
2022-08-14T15:35:29.821Z,7.88
2022-08-14T15:38:08.844Z,8.23
2022-08-14T15:40:41.159Z,8.90
2022-08-14T15:43:13.189Z,7.43
2022-08-14T15:45:41.594Z,5.10
2022-08-14T15:48:22.603Z,5.50
2022-08-14T15:50:51.705Z,7.93
2022-08-14T15:53:31.603Z,5.15
2022-08-14T15:55:59.433Z,7.85
2022-08-14T15:58:27.487Z,4.63
2022-08-14T16:01:22.496Z,7.10
2022-08-14T16:03:58.781Z,12.23
2022-08-14T16:06:29.921Z,6.75
2022-08-14T16:09:03.429Z,6.00
2022-08-14T16:11:38.666Z,7.70
2022-08-14T16:14:14.903Z,9.63
2022-08-14T16:16:59.860Z,7.40
2022-08-14T16:19:31.317Z,8.82
2022-08-14T16:25:02.472Z,10.18
2022-08-14T16:30:27.513Z,12.50
2022-08-14T16:32:57.777Z,9.35
2022-08-14T16:35:42.637Z,12.50
2022-08-14T16:38:35.736Z,19.30
2022-08-14T16:40:24.057Z,6.75
2022-08-14T16:41:27.195Z,16.95
2022-08-14T16:44:02.108Z,11.98
2022-08-14T16:46:32.885Z,13.20
2022-08-14T16:49:01.617Z,19.40
2022-08-14T16:51:34.916Z,21.35
2022-08-14T16:54:34.569Z,24.20
2022-08-14T16:57:16.377Z,17.23
2022-08-14T16:59:52.836Z,22.77
2022-08-14T17:02:34.537Z,22.23
2022-08-14T17:05:22.065Z,16.20
2022-08-14T17:08:28.462Z,13.52
2022-08-14T17:10:52.288Z,13.50
2022-08-14T17:13:47.298Z,14.15
2022-08-14T17:16:24.996Z,22.38
2022-08-14T17:19:00.535Z,12.43
2022-08-14T17:21:38.439Z,16.30
2022-08-14T17:24:56.451Z,18.85
2022-08-14T17:27:03.746Z,14.80
2022-08-14T17:29:44.596Z,12.52
2022-08-14T17:32:29.844Z,12.82
2022-08-14T17:35:12.045Z,13.40
2022-08-14T17:37:46.396Z,13.13
2022-08-14T17:40:16.856Z,11.45
2022-08-14T17:42:51.457Z,15.07
2022-08-14T17:45:41.362Z,11.18
2022-08-14T17:49:10.096Z,19.75
2022-08-14T17:51:24.118Z,17.63
2022-08-14T17:54:03.428Z,32.42
2022-08-14T17:56:38.699Z,23.35
2022-08-14T17:59:06.857Z,24.92
2022-08-14T18:01:45.649Z,24.80
2022-08-14T18:04:28.781Z,18.42
2022-08-14T18:07:16.733Z,19.38
2022-08-14T18:09:59.977Z,17.42
2022-08-14T18:12:47.914Z,18.52
2022-08-14T18:15:19.301Z,18.20
2022-08-14T18:17:53.262Z,16.87
2022-08-14T18:21:42.103Z,17.58
2022-08-14T18:23:14.171Z,14.23
2022-08-14T18:25:52.855Z,17.88
2022-08-14T18:28:51.413Z,17.15
2022-08-14T18:31:23.397Z,18.67
2022-08-14T18:33:56.124Z,18.13
2022-08-14T18:36:49.013Z,15.50
2022-08-14T18:39:25.107Z,12.43
2022-08-14T18:41:54.796Z,17.52
2022-08-14T18:44:50.697Z,15.10
2022-08-14T18:47:18.040Z,12.23
2022-08-14T18:49:55.014Z,13.38
2022-08-14T18:52:44.104Z,12.73
2022-08-14T18:55:21.105Z,14.68
2022-08-14T18:57:58.334Z,9.60
2022-08-14T19:00:51.122Z,15.52
2022-08-14T19:03:22.674Z,8.93
2022-08-14T19:05:51.075Z,9.82
2022-08-14T19:08:24.975Z,10.30
2022-08-14T19:10:54.525Z,9.18
2022-08-14T19:13:44.431Z,11.80
2022-08-14T19:16:23.324Z,12.90
2022-08-14T19:19:00.035Z,8.52
2022-08-14T19:21:29.902Z,11.90
2022-08-14T19:24:27.701Z,9.52
2022-08-14T19:27:23.523Z,8.82
2022-08-14T19:30:11.196Z,15.45
2022-08-14T19:32:53.180Z,16.48
2022-08-14T19:35:41.703Z,13.80
2022-08-14T19:39:00.617Z,17.30
2022-08-14T19:41:35.582Z,15.68
2022-08-14T19:44:31.997Z,12.35
2022-08-14T19:47:04.834Z,17.17
2022-08-14T19:50:08.782Z,15.90
2022-08-14T19:52:37.255Z,13.93
2022-08-14T19:55:18.551Z,16.00
2022-08-14T19:57:52.079Z,12.73
2022-08-14T20:00:30.548Z,12.05
2022-08-14T20:03:12.067Z,15.27
2022-08-14T20:05:42.917Z,13.07
2022-08-14T20:09:05.546Z,13.63
2022-08-14T20:11:14.981Z,13.55
2022-08-14T20:14:09.572Z,12.77
2022-08-14T20:16:41.885Z,15.48
2022-08-14T20:19:16.538Z,12.47
2022-08-14T20:21:58.190Z,12.95
2022-08-14T20:24:41.275Z,15.85
2022-08-14T20:27:41.059Z,24.35
2022-08-14T20:30:33.861Z,17.83
2022-08-14T20:33:11.569Z,18.27
2022-08-14T20:35:49.410Z,16.75
2022-08-14T20:38:33.329Z,20.30
2022-08-14T20:41:06.876Z,16.63
2022-08-14T20:43:58.636Z,15.10
2022-08-14T20:46:31.730Z,19.08
2022-08-14T20:49:00.170Z,17.02
2022-08-14T20:51:54.751Z,15.82
2022-08-14T20:54:33.413Z,18.17
2022-08-14T20:57:10.473Z,18.08
2022-08-14T20:59:43.377Z,13.70
2022-08-14T21:02:34.249Z,18.50
2022-08-14T21:05:16.712Z,24.48
2022-08-14T21:07:50.344Z,22.38
2022-08-14T21:10:36.227Z,17.88
2022-08-14T21:14:09.260Z,18.52
2022-08-14T21:16:03.691Z,19.02
2022-08-14T21:18:35.374Z,21.63
2022-08-14T21:21:21.810Z,24.17
2022-08-14T21:23:55.781Z,17.40
2022-08-14T21:26:50.593Z,17.88
2022-08-14T21:29:16.360Z,19.25
2022-08-14T21:31:55.239Z,20.50
2022-08-14T21:34:27.303Z,22.08
2022-08-14T21:37:08.830Z,21.75
2022-08-14T21:39:36.807Z,19.67
2022-08-14T21:42:06.260Z,20.70
2022-08-14T21:44:42.877Z,18.75
2022-08-14T21:47:12.927Z,16.52
2022-08-14T21:49:46.154Z,20.58
2022-08-14T21:52:49.700Z,21.45
2022-08-14T21:55:10.205Z,16.63
2022-08-14T21:57:56.219Z,20.77
2022-08-14T22:00:42.188Z,26.10
2022-08-14T22:03:19.344Z,18.33
2022-08-14T22:05:55.172Z,18.15
2022-08-14T22:08:26.796Z,28.70
2022-08-14T22:10:56.626Z,17.27
2022-08-14T22:13:26.810Z,24.20
2022-08-14T22:16:02.039Z,20.65
2022-08-14T22:18:31.144Z,21.13
2022-08-14T22:21:05.584Z,25.27
2022-08-14T22:23:33.178Z,23.00
2022-08-14T22:26:03.359Z,28.52
2022-08-14T22:28:33.053Z,21.77
2022-08-14T22:31:10.156Z,28.52
2022-08-14T22:33:39.509Z,29.80
2022-08-14T22:36:33.843Z,26.70
2022-08-14T22:39:03.186Z,24.90
2022-08-14T22:41:42.267Z,25.30
2022-08-14T22:44:14.550Z,23.08
2022-08-14T22:46:43.515Z,23.98
2022-08-14T22:49:16.726Z,30.13
2022-08-14T22:52:04.780Z,24.42
2022-08-14T22:54:53.929Z,18.85
2022-08-14T22:57:22.465Z,22.17
2022-08-14T22:59:50.296Z,21.05
2022-08-14T23:02:32.157Z,20.63
2022-08-14T23:05:04.720Z,19.70
2022-08-14T23:08:57.534Z,19.80
2022-08-14T23:10:31.955Z,17.92
2022-08-14T23:13:03.741Z,23.83
2022-08-14T23:15:33.626Z,21.27
2022-08-14T23:18:03.349Z,19.13
2022-08-14T23:20:31.987Z,27.50
2022-08-14T23:22:59.213Z,22.95
2022-08-14T23:25:57.239Z,23.88
2022-08-14T23:28:33.281Z,23.67
2022-08-14T23:31:12.507Z,18.20
2022-08-14T23:33:51.790Z,22.65
2022-08-14T23:36:28.531Z,23.20
2022-08-14T23:39:12.318Z,17.75
2022-08-14T23:41:52.655Z,21.73
2022-08-14T23:44:22.633Z,19.10
2022-08-14T23:47:00.594Z,15.73
2022-08-14T23:49:56.822Z,25.23
2022-08-14T23:52:50.426Z,22.33
2022-08-14T23:55:11.547Z,22.58
2022-08-14T23:57:43.880Z,23.13
